createdAt,value
2019-05-05T00:04:14.900Z,6.07
2019-05-05T00:09:18.624Z,4.73
2019-05-05T00:14:44.234Z,4.70
2019-05-05T00:19:48.593Z,4.40
2019-05-05T00:24:55.766Z,4.43
2019-05-05T00:30:09.561Z,5.30
2019-05-05T00:35:14.841Z,5.00
2019-05-05T00:40:27.843Z,4.40
2019-05-05T00:45:34.471Z,4.37
2019-05-05T00:50:37.843Z,5.53
2019-05-05T00:55:48.565Z,4.97
2019-05-05T01:00:56.671Z,4.90
2019-05-05T01:06:10.584Z,5.00
2019-05-05T01:11:15.334Z,4.80
2019-05-05T01:16:19.163Z,4.90
2019-05-05T01:21:24.587Z,5.23
2019-05-05T01:26:30.963Z,4.73
2019-05-05T01:31:35.474Z,4.60
2019-05-05T01:36:39.211Z,4.90
2019-05-05T01:41:47.658Z,5.30
2019-05-05T01:46:56.145Z,6.03
2019-05-05T01:51:59.816Z,6.10
2019-05-05T01:57:08.753Z,6.37
2019-05-05T02:02:15.118Z,6.60
2019-05-05T02:07:18.721Z,7.07
2019-05-05T02:12:28.427Z,7.00
2019-05-05T02:17:35.304Z,6.60
2019-05-05T02:22:39.059Z,6.87
2019-05-05T02:27:44.615Z,8.67
2019-05-05T02:32:55.182Z,7.87
2019-05-05T02:37:57.840Z,7.90
2019-05-05T02:43:01.562Z,8.17
2019-05-05T02:48:10.352Z,7.90
2019-05-05T02:53:14.323Z,8.63
2019-05-05T02:58:21.690Z,7.77
2019-05-05T03:03:28.736Z,6.70
2019-05-05T03:08:35.887Z,8.10
2019-05-05T03:13:49.173Z,7.90
2019-05-05T03:18:58.600Z,8.00
2019-05-05T03:24:05.735Z,7.83
2019-05-05T03:29:11.330Z,7.93
2019-05-05T03:34:16.302Z,8.53
2019-05-05T03:39:28.402Z,9.43
2019-05-05T03:44:49.934Z,8.93
2019-05-05T03:49:56.314Z,8.20
2019-05-05T03:55:03.669Z,8.07
2019-05-05T04:00:11.335Z,8.20
2019-05-05T04:05:19.449Z,9.10
2019-05-05T04:10:26.631Z,8.50
2019-05-05T04:15:40.767Z,9.67
2019-05-05T04:20:44.198Z,10.20
2019-05-05T04:25:47.753Z,10.13
2019-05-05T04:30:53.567Z,10.23
2019-05-05T04:35:56.613Z,10.40
2019-05-05T04:41:05.860Z,10.70
2019-05-05T04:46:09.531Z,10.10
2019-05-05T04:51:17.646Z,9.63
2019-05-05T04:56:24.650Z,10.00
2019-05-05T05:01:33.094Z,10.47
2019-05-05T05:06:50.592Z,11.30
2019-05-05T05:11:57.236Z,10.90
2019-05-05T05:17:05.540Z,11.10
2019-05-05T05:22:11.122Z,10.93
2019-05-05T05:27:17.449Z,11.20
2019-05-05T05:32:21.041Z,10.70
2019-05-05T05:37:45.746Z,10.90
2019-05-05T05:42:50.973Z,11.80
2019-05-05T05:48:04.042Z,11.30
2019-05-05T05:53:07.547Z,11.60
2019-05-05T05:58:11.150Z,12.43
2019-05-05T06:03:14.758Z,12.07
2019-05-05T06:08:24.444Z,11.77
2019-05-05T06:13:28.118Z,11.87
2019-05-05T06:18:37.727Z,10.70
2019-05-05T06:23:43.544Z,11.63
2019-05-05T06:28:46.575Z,10.70
2019-05-05T06:33:50.188Z,10.90
2019-05-05T06:38:56.489Z,11.30
2019-05-05T06:44:24.612Z,10.83
2019-05-05T06:49:23.847Z,11.60
2019-05-05T06:54:27.480Z,10.67
2019-05-05T06:59:35.589Z,11.60
2019-05-05T07:04:44.459Z,10.17
2019-05-05T07:09:51.235Z,9.73
2019-05-05T07:14:57.536Z,9.97
2019-05-05T07:20:03.749Z,10.27
2019-05-05T07:25:07.417Z,9.87
2019-05-05T07:30:13.599Z,10.07
2019-05-05T07:35:27.199Z,9.37
2019-05-05T07:40:30.878Z,7.70
2019-05-05T07:45:34.482Z,9.03
2019-05-05T07:50:38.136Z,8.73
2019-05-05T07:55:44.762Z,7.97
2019-05-05T08:00:51.601Z,8.83
2019-05-05T08:05:55.198Z,7.43
2019-05-05T08:10:58.810Z,7.27
2019-05-05T08:16:04.076Z,7.70
2019-05-05T08:21:08.694Z,6.07
2019-05-05T08:26:13.954Z,6.63
2019-05-05T08:31:25.029Z,7.70
2019-05-05T08:36:30.382Z,6.40
2019-05-05T08:41:36.661Z,5.97
2019-05-05T08:46:41.809Z,5.60
2019-05-05T08:51:45.832Z,5.40
2019-05-05T08:56:51.135Z,6.30
2019-05-05T09:01:57.567Z,5.47
2019-05-05T09:07:05.001Z,5.90
2019-05-05T09:12:09.518Z,5.63
2019-05-05T09:17:16.169Z,6.10
2019-05-05T09:22:25.323Z,5.87
2019-05-05T09:27:30.554Z,5.00
2019-05-05T09:32:37.194Z,4.87
2019-05-05T09:37:44.345Z,4.80
2019-05-05T09:42:47.837Z,5.00
2019-05-05T09:47:54.154Z,4.83
2019-05-05T09:53:00.702Z,5.33
2019-05-05T09:58:10.092Z,4.97
2019-05-05T10:03:14.774Z,4.30
2019-05-05T10:08:18.376Z,4.43
2019-05-05T10:13:23.615Z,4.90
2019-05-05T10:18:30.001Z,4.80
2019-05-05T10:23:38.183Z,3.53
2019-05-05T10:28:44.699Z,3.83
2019-05-05T10:33:53.956Z,3.00
2019-05-05T10:39:01.843Z,3.30
2019-05-05T10:44:08.404Z,3.30
2019-05-05T10:49:15.536Z,3.60
2019-05-05T10:54:23.709Z,3.20
2019-05-05T10:59:36.406Z,2.93
2019-05-05T11:04:44.025Z,3.10
2019-05-05T11:09:49.900Z,2.50
2019-05-05T11:14:55.261Z,2.27
2019-05-05T11:20:05.114Z,2.70
2019-05-05T11:25:08.955Z,3.10
2019-05-05T11:30:20.444Z,3.13
2019-05-05T11:35:44.691Z,2.80
2019-05-05T11:40:48.452Z,2.43
2019-05-05T11:45:54.221Z,2.20
2019-05-05T11:50:58.747Z,2.40
2019-05-05T11:56:04.185Z,2.63
2019-05-05T12:01:07.559Z,2.53
2019-05-05T12:06:11.386Z,2.83
2019-05-05T12:11:15.283Z,2.43
2019-05-05T12:16:31.863Z,2.20
2019-05-05T12:21:35.528Z,2.50
2019-05-05T12:26:49.721Z,2.27
2019-05-05T12:31:59.289Z,2.37
2019-05-05T12:37:05.069Z,2.47
2019-05-05T12:42:08.217Z,2.77
2019-05-05T12:47:14.422Z,2.30
2019-05-05T12:52:18.210Z,2.23
2019-05-05T12:57:24.001Z,2.40
2019-05-05T13:02:32.930Z,2.13
2019-05-05T13:07:37.339Z,1.97
2019-05-05T13:12:46.953Z,2.10
2019-05-05T13:17:50.622Z,2.20
2019-05-05T13:23:08.018Z,1.93
2019-05-05T13:28:14.638Z,1.93
2019-05-05T13:33:18.349Z,1.97
2019-05-05T13:38:23.871Z,2.13
2019-05-05T13:43:30.034Z,1.73
2019-05-05T13:48:33.907Z,2.03
2019-05-05T13:53:37.584Z,1.67
2019-05-05T13:58:41.264Z,1.93
2019-05-05T14:03:44.930Z,2.20
2019-05-05T14:08:48.605Z,2.40
2019-05-05T14:13:52.207Z,2.80
2019-05-05T14:18:55.829Z,2.10
2019-05-05T14:24:03.877Z,1.90
2019-05-05T14:29:09.417Z,1.83
2019-05-05T14:34:17.685Z,1.90
2019-05-05T14:39:23.799Z,1.90
2019-05-05T14:44:27.095Z,1.40
2019-05-05T14:49:33.968Z,1.93
2019-05-05T14:54:39.347Z,1.80
2019-05-05T14:59:43.988Z,1.87
2019-05-05T15:04:54.726Z,1.60
2019-05-05T15:10:14.454Z,1.53
2019-05-05T15:15:16.989Z,1.40
2019-05-05T15:20:20.590Z,1.30
2019-05-05T15:25:26.507Z,1.70
2019-05-05T15:30:30.097Z,1.43
2019-05-05T15:35:33.992Z,2.07
2019-05-05T15:40:39.298Z,2.20
2019-05-05T15:45:44.151Z,1.97
2019-05-05T15:50:47.715Z,2.03
2019-05-05T15:55:51.377Z,1.90
2019-05-05T16:00:54.996Z,1.70
2019-05-05T16:05:58.615Z,2.10
2019-05-05T16:11:03.704Z,2.00
2019-05-05T16:16:09.207Z,1.90
2019-05-05T16:21:20.651Z,1.97
2019-05-05T16:26:27.108Z,1.90
2019-05-05T16:31:30.729Z,2.13
2019-05-05T16:36:35.786Z,1.67
2019-05-05T16:41:39.398Z,2.20
2019-05-05T16:46:44.596Z,1.80
2019-05-05T16:51:54.422Z,1.90
2019-05-05T16:56:58.164Z,1.80
2019-05-05T17:02:04.712Z,1.70
2019-05-05T17:07:08.535Z,1.83
2019-05-05T17:12:14.064Z,2.00
2019-05-05T17:17:31.284Z,1.63
2019-05-05T17:22:40.214Z,1.77
2019-05-05T17:27:50.867Z,1.67
2019-05-05T17:32:54.436Z,1.60
2019-05-05T17:37:59.884Z,2.20
2019-05-05T17:43:05.167Z,2.80
2019-05-05T17:48:16.384Z,1.67
2019-05-05T17:53:27.410Z,2.53
2019-05-05T17:58:31.113Z,2.40
2019-05-05T18:03:37.509Z,2.13
2019-05-05T18:08:44.519Z,2.30
2019-05-05T18:13:49.926Z,2.30
2019-05-05T18:18:56.587Z,2.20
2019-05-05T18:24:00.257Z,2.10
2019-05-05T18:29:04.027Z,2.23
2019-05-05T18:34:07.630Z,2.20
2019-05-05T18:39:15.825Z,2.00
2019-05-05T18:44:26.652Z,2.40
2019-05-05T18:49:36.285Z,2.80
2019-05-05T18:54:45.494Z,2.13
2019-05-05T18:59:51.558Z,2.50
2019-05-05T19:05:04.604Z,2.00
2019-05-05T19:10:08.115Z,3.00
2019-05-05T19:15:13.635Z,3.33
2019-05-05T19:20:19.113Z,3.10
2019-05-05T19:25:24.188Z,2.80
2019-05-05T19:30:28.979Z,2.50
2019-05-05T19:35:41.946Z,3.20
2019-05-05T19:40:40.241Z,3.70
2019-05-05T19:45:44.819Z,7.50
2019-05-05T19:50:55.842Z,3.40
2019-05-05T19:55:59.526Z,3.10
2019-05-05T20:01:04.773Z,4.43
2019-05-05T20:06:16.094Z,3.60
2019-05-05T20:11:25.836Z,3.97
2019-05-05T20:16:34.200Z,3.30
2019-05-05T20:21:37.760Z,3.00
2019-05-05T20:26:41.434Z,2.70
2019-05-05T20:31:45.047Z,2.03
2019-05-05T20:37:05.647Z,2.13
2019-05-05T20:42:10.952Z,2.27
2019-05-05T20:47:14.588Z,2.40
2019-05-05T20:52:18.163Z,2.23
2019-05-05T20:57:24.269Z,2.20
2019-05-05T21:02:27.921Z,2.20
2019-05-05T21:07:34.754Z,1.77
2019-05-05T21:12:42.313Z,2.20
2019-05-05T21:17:45.085Z,1.80
2019-05-05T21:22:50.351Z,2.23
2019-05-05T21:27:59.427Z,2.17
2019-05-05T21:33:04.703Z,1.87
2019-05-05T21:38:15.179Z,2.17
2019-05-05T21:43:21.544Z,1.80
2019-05-05T21:48:25.083Z,2.00
2019-05-05T21:53:39.032Z,2.13
2019-05-05T21:58:44.305Z,1.73
2019-05-05T22:03:51.357Z,2.27
2019-05-05T22:08:56.671Z,2.83
2019-05-05T22:14:00.266Z,2.70
2019-05-05T22:19:05.472Z,2.70
2019-05-05T22:24:19.067Z,2.53
2019-05-05T22:29:25.450Z,2.10
2019-05-05T22:34:29.046Z,2.30
2019-05-05T22:39:39.770Z,2.53
2019-05-05T22:44:43.358Z,2.20
2019-05-05T22:49:49.799Z,2.40
2019-05-05T22:54:53.393Z,2.40
2019-05-05T22:59:57.013Z,2.47
2019-05-05T23:05:04.065Z,2.50
2019-05-05T23:10:14.078Z,2.10
2019-05-05T23:15:25.329Z,2.37
2019-05-05T23:20:57.799Z,2.27
2019-05-05T23:26:08.838Z,2.40
2019-05-05T23:31:15.957Z,2.43
2019-05-05T23:36:24.198Z,2.40
2019-05-05T23:41:27.963Z,2.33
2019-05-05T23:46:31.963Z,2.30
2019-05-05T23:51:37.983Z,2.13
2019-05-05T23:56:41.577Z,2.70
